createdAt,value
2018-04-10T00:00:16.986Z,13.30
2018-04-10T00:02:43.982Z,13.40
2018-04-10T00:05:10.121Z,13.40
2018-04-10T00:07:36.192Z,13.40
2018-04-10T00:10:02.243Z,13.30
2018-04-10T00:12:28.470Z,13.30
2018-04-10T00:14:55.242Z,13.30
2018-04-10T00:17:21.346Z,13.30
2018-04-10T00:19:47.677Z,13.20
2018-04-10T00:22:13.783Z,13.20
2018-04-10T00:24:39.833Z,13.20
2018-04-10T00:27:05.899Z,13.20
2018-04-10T00:29:32.175Z,13.10
2018-04-10T00:31:59.016Z,13.10
2018-04-10T00:34:25.815Z,13.00
2018-04-10T00:36:51.886Z,13.00
2018-04-10T00:39:18.312Z,13.10
2018-04-10T00:41:44.462Z,13.00
2018-04-10T00:44:10.511Z,13.00
2018-04-10T00:46:36.572Z,13.00
2018-04-10T00:49:03.341Z,13.00
2018-04-10T00:51:29.392Z,13.00
2018-04-10T00:53:55.821Z,13.00
2018-04-10T00:56:22.646Z,13.00
2018-04-10T00:58:48.705Z,13.00
2018-04-10T01:01:15.631Z,13.10
2018-04-10T01:03:41.706Z,13.00
2018-04-10T01:06:08.499Z,13.10
2018-04-10T01:08:34.641Z,13.10
2018-04-10T01:11:01.425Z,13.00
2018-04-10T01:13:27.489Z,13.00
2018-04-10T01:15:54.291Z,13.00
2018-04-10T01:18:20.418Z,13.00
2018-04-10T01:20:46.544Z,12.90
2018-04-10T01:23:12.606Z,12.90
2018-04-10T01:25:38.625Z,12.90
2018-04-10T01:28:04.768Z,12.90
2018-04-10T01:30:30.819Z,12.90
2018-04-10T01:32:56.944Z,12.90
2018-04-10T01:35:23.045Z,12.90
2018-04-10T01:37:49.160Z,12.80
2018-04-10T01:40:15.653Z,12.80
2018-04-10T01:42:41.709Z,12.80
2018-04-10T01:45:07.735Z,12.70
2018-04-10T01:47:33.804Z,12.70
2018-04-10T01:49:59.860Z,12.60
2018-04-10T01:52:25.966Z,12.50
2018-04-10T01:54:52.045Z,12.50
2018-04-10T01:57:18.228Z,12.50
2018-04-10T01:59:44.417Z,12.50
2018-04-10T02:02:11.220Z,12.30
2018-04-10T02:04:37.365Z,12.30
2018-04-10T02:07:03.479Z,12.30
2018-04-10T02:12:35.247Z,12.30
2018-04-10T02:15:01.309Z,12.30
2018-04-10T02:17:27.601Z,12.30
2018-04-10T02:19:53.647Z,12.20
2018-04-10T02:22:19.871Z,12.20
2018-04-10T02:24:46.173Z,12.20
2018-04-10T02:27:12.308Z,12.10
2018-04-10T02:29:39.189Z,12.10
2018-04-10T02:32:05.367Z,12.10
2018-04-10T02:34:31.424Z,12.10
2018-04-10T02:36:57.856Z,12.10
2018-04-10T02:39:23.937Z,12.00
2018-04-10T02:41:50.835Z,11.90
2018-04-10T02:44:17.372Z,11.90
2018-04-10T02:46:44.561Z,11.80
2018-04-10T02:49:10.680Z,11.80
2018-04-10T02:51:36.778Z,11.70
2018-04-10T02:54:03.594Z,11.70
2018-04-10T02:56:29.655Z,11.70
2018-04-10T02:58:55.711Z,11.70
2018-04-10T03:01:22.570Z,11.50
2018-04-10T03:03:49.522Z,11.50
2018-04-10T03:06:16.706Z,11.50
2018-04-10T03:08:42.831Z,11.40
2018-04-10T03:11:08.913Z,11.40
2018-04-10T03:13:35.691Z,11.30
2018-04-10T03:16:01.785Z,11.20
2018-04-10T03:18:27.967Z,11.20
2018-04-10T03:20:54.019Z,11.20
2018-04-10T03:23:20.895Z,11.10
2018-04-10T03:25:47.765Z,11.00
2018-04-10T03:28:14.078Z,11.00
2018-04-10T03:30:40.941Z,10.90
2018-04-10T03:33:07.859Z,10.90
2018-04-10T03:35:33.948Z,10.90
2018-04-10T03:38:00.064Z,10.80
2018-04-10T03:40:26.155Z,10.80
2018-04-10T03:42:52.327Z,10.80
2018-04-10T03:45:18.558Z,10.80
2018-04-10T03:47:44.783Z,10.80
2018-04-10T03:50:11.660Z,10.70
2018-04-10T03:52:37.785Z,10.70
2018-04-10T03:55:03.919Z,10.70
2018-04-10T03:57:30.028Z,10.70
2018-04-10T03:59:56.122Z,10.60
2018-04-10T04:02:22.313Z,10.70
2018-04-10T04:04:48.587Z,10.60
2018-04-10T04:07:14.870Z,10.60
2018-04-10T04:09:41.748Z,10.50
2018-04-10T04:12:07.864Z,10.40
2018-04-10T04:14:34.007Z,10.40
2018-04-10T04:17:13.243Z,10.30
2018-04-10T04:19:52.566Z,10.40
2018-04-10T04:22:30.987Z,10.30
2018-04-10T04:24:57.083Z,10.30
2018-04-10T04:27:23.995Z,10.40
2018-04-10T04:29:50.122Z,10.30
2018-04-10T04:32:16.686Z,10.30
2018-04-10T04:34:42.874Z,10.20
2018-04-10T04:37:09.334Z,10.30
2018-04-10T04:39:35.473Z,10.20
2018-04-10T04:42:01.609Z,10.20
2018-04-10T04:44:27.751Z,10.10
2018-04-10T04:46:53.911Z,10.10
2018-04-10T04:49:27.108Z,10.10
2018-04-10T04:51:53.309Z,10.10
2018-04-10T04:54:19.435Z,10.10
2018-04-10T04:56:45.699Z,10.00
2018-04-10T04:59:11.879Z,10.10
2018-04-10T05:01:38.003Z,10.00
2018-04-10T05:04:04.143Z,10.00
2018-04-10T05:06:30.314Z,10.00
2018-04-10T05:08:56.451Z,10.00
2018-04-10T05:11:23.414Z,10.10
2018-04-10T05:13:50.010Z,10.00
2018-04-10T05:16:16.351Z,10.10
2018-04-10T05:18:42.474Z,10.10
2018-04-10T05:21:09.419Z,10.30
2018-04-10T05:23:35.685Z,10.20
2018-04-10T05:26:02.520Z,10.30
2018-04-10T05:28:28.791Z,10.30
2018-04-10T05:30:55.005Z,10.40
2018-04-10T05:33:22.116Z,10.50
2018-04-10T05:35:49.030Z,10.50
2018-04-10T05:38:15.217Z,10.60
2018-04-10T05:40:41.321Z,10.60
2018-04-10T05:43:07.427Z,10.60
2018-04-10T05:45:33.548Z,10.70
2018-04-10T05:47:59.735Z,10.80
2018-04-10T05:50:26.627Z,10.90
2018-04-10T05:52:52.741Z,11.00
2018-04-10T05:55:19.014Z,11.00
2018-04-10T05:57:45.243Z,11.00
2018-04-10T06:00:11.387Z,11.10
2018-04-10T06:02:37.475Z,11.20
2018-04-10T06:05:03.826Z,11.20
2018-04-10T06:07:30.737Z,11.30
2018-04-10T06:09:56.919Z,11.30
2018-04-10T06:12:23.450Z,11.40
2018-04-10T06:14:49.608Z,11.50
2018-04-10T06:17:15.809Z,11.60
2018-04-10T06:19:41.935Z,11.70
2018-04-10T06:22:08.132Z,11.70
2018-04-10T06:24:35.091Z,11.90
2018-04-10T06:27:01.236Z,11.90
2018-04-10T06:29:28.139Z,12.20
2018-04-10T06:31:54.245Z,12.10
2018-04-10T06:34:21.067Z,12.40
2018-04-10T06:36:48.026Z,12.50
2018-04-10T06:39:14.531Z,12.50
2018-04-10T06:41:40.732Z,12.60
2018-04-10T06:44:08.147Z,12.80
2018-04-10T06:46:34.295Z,12.70
2018-04-10T06:49:01.265Z,12.80
2018-04-10T06:51:27.603Z,12.90
2018-04-10T06:53:53.741Z,13.00
2018-04-10T06:56:19.989Z,13.10
2018-04-10T06:58:46.979Z,13.20
2018-04-10T07:01:13.900Z,13.20
2018-04-10T07:03:40.110Z,13.20
2018-04-10T07:06:06.260Z,13.30
2018-04-10T07:08:32.409Z,13.30
2018-04-10T07:10:58.519Z,13.40
2018-04-10T07:13:24.748Z,13.40
2018-04-10T07:15:51.622Z,13.50
2018-04-10T07:18:17.746Z,13.50
2018-04-10T07:20:44.016Z,13.60
2018-04-10T07:23:10.140Z,13.60
2018-04-10T07:25:36.182Z,13.70
2018-04-10T07:28:02.264Z,13.70
2018-04-10T07:30:28.309Z,13.80
2018-04-10T07:32:54.641Z,13.80
2018-04-10T07:35:20.683Z,13.90
2018-04-10T07:37:46.847Z,13.90
2018-04-10T07:40:13.020Z,14.00
2018-04-10T07:42:39.065Z,14.00
2018-04-10T07:45:05.146Z,14.10
2018-04-10T07:47:31.208Z,14.00
2018-04-10T07:49:57.981Z,14.20
2018-04-10T07:52:24.022Z,14.20
2018-04-10T07:54:51.183Z,14.40
2018-04-10T07:57:17.266Z,14.40
2018-04-10T07:59:44.019Z,14.50
2018-04-10T08:02:10.104Z,14.70
2018-04-10T08:04:36.149Z,14.90
2018-04-10T08:07:02.214Z,14.90
2018-04-10T08:09:28.297Z,15.00
2018-04-10T08:11:54.321Z,15.00
2018-04-10T08:14:20.532Z,15.10
2018-04-10T08:16:46.761Z,15.10
2018-04-10T08:19:12.801Z,15.10
2018-04-10T08:21:38.850Z,15.20
2018-04-10T08:24:05.670Z,15.30
2018-04-10T08:26:32.516Z,15.30
2018-04-10T08:28:59.299Z,15.40
2018-04-10T08:31:25.372Z,15.40
2018-04-10T08:33:51.431Z,15.60
2018-04-10T08:36:18.327Z,15.80
2018-04-10T08:38:44.882Z,15.80
2018-04-10T08:41:10.965Z,15.90
2018-04-10T08:43:37.025Z,16.00
2018-04-10T08:46:03.899Z,16.20
2018-04-10T08:48:29.953Z,16.20
2018-04-10T08:50:55.996Z,16.30
2018-04-10T08:53:22.036Z,16.50
2018-04-10T08:55:48.125Z,16.50
2018-04-10T08:58:14.366Z,16.50
2018-04-10T09:00:40.465Z,16.60
2018-04-10T09:03:06.505Z,16.70
2018-04-10T09:05:32.608Z,16.70
2018-04-10T09:07:59.373Z,16.70
2018-04-10T09:10:25.444Z,16.70
2018-04-10T09:12:51.618Z,16.80
2018-04-10T09:15:18.629Z,16.70
2018-04-10T09:17:45.043Z,16.70
2018-04-10T09:20:11.231Z,16.80
2018-04-10T09:22:37.273Z,17.00
2018-04-10T09:25:03.293Z,17.10
2018-04-10T09:27:29.352Z,17.20
2018-04-10T09:29:55.401Z,17.10
2018-04-10T09:32:21.473Z,17.10
2018-04-10T09:34:48.431Z,17.30
2018-04-10T09:37:15.289Z,17.50
2018-04-10T09:39:41.343Z,17.50
2018-04-10T09:42:07.765Z,17.50
2018-04-10T09:44:33.820Z,17.60
2018-04-10T09:46:59.844Z,17.60
2018-04-10T09:49:25.925Z,17.70
2018-04-10T09:51:51.980Z,17.70
2018-04-10T09:54:18.038Z,17.70
2018-04-10T09:56:44.269Z,17.90
2018-04-10T09:59:10.326Z,17.90
2018-04-10T10:01:36.374Z,18.00
2018-04-10T10:04:02.501Z,18.10
2018-04-10T10:06:28.608Z,18.10
2018-04-10T10:08:55.464Z,18.10
2018-04-10T10:11:21.517Z,18.10
2018-04-10T10:13:47.654Z,18.20
2018-04-10T10:16:14.614Z,18.40
2018-04-10T10:18:40.783Z,18.60
2018-04-10T10:21:07.121Z,18.50
2018-04-10T10:23:34.169Z,18.60
2018-04-10T10:26:00.308Z,18.60
2018-04-10T10:28:26.359Z,18.60
2018-04-10T10:30:53.157Z,18.60
2018-04-10T10:33:19.269Z,18.60
2018-04-10T10:35:45.576Z,18.80
2018-04-10T10:38:12.551Z,18.80
2018-04-10T10:40:39.345Z,19.00
2018-04-10T10:43:05.385Z,19.00
2018-04-10T10:45:31.449Z,19.00
2018-04-10T10:47:57.481Z,19.00
2018-04-10T10:50:23.553Z,19.00
2018-04-10T10:52:50.337Z,19.20
2018-04-10T10:55:16.475Z,19.20
2018-04-10T10:57:42.637Z,19.00
2018-04-10T11:00:08.700Z,18.90
2018-04-10T11:02:34.741Z,19.00
2018-04-10T11:05:00.812Z,19.10
2018-04-10T11:07:26.844Z,19.10
2018-04-10T11:09:52.891Z,19.10
2018-04-10T11:12:19.124Z,19.20
2018-04-10T11:14:45.216Z,19.20
2018-04-10T11:17:11.273Z,19.60
2018-04-10T11:19:37.318Z,20.10
2018-04-10T11:22:03.427Z,20.10
2018-04-10T11:24:29.494Z,20.40
2018-04-10T11:26:56.274Z,20.70
2018-04-10T11:29:22.303Z,20.70
2018-04-10T11:31:48.551Z,21.00
2018-04-10T11:34:14.655Z,21.20
2018-04-10T11:36:41.449Z,21.50
2018-04-10T11:39:07.520Z,21.50
2018-04-10T11:41:33.673Z,22.00
2018-04-10T11:43:59.721Z,22.40
2018-04-10T11:46:25.791Z,22.60
2018-04-10T11:48:51.818Z,22.50
2018-04-10T11:51:18.717Z,22.60
2018-04-10T11:53:44.888Z,22.50
2018-04-10T11:56:10.965Z,22.60
2018-04-10T11:58:37.911Z,22.70
2018-04-10T12:01:04.044Z,22.70
2018-04-10T12:03:30.848Z,22.80
2018-04-10T12:05:57.266Z,22.80
2018-04-10T12:08:23.330Z,23.00
2018-04-10T12:10:49.400Z,23.30
2018-04-10T12:15:48.421Z,23.90
2018-04-10T12:18:14.947Z,24.30
2018-04-10T12:20:41.069Z,24.50
2018-04-10T12:23:07.865Z,24.70
2018-04-10T12:25:34.042Z,24.70
2018-04-10T12:28:00.105Z,24.60
2018-04-10T12:30:26.861Z,25.00
2018-04-10T12:32:52.919Z,25.00
2018-04-10T12:35:19.072Z,25.50
2018-04-10T12:37:45.177Z,25.40
2018-04-10T12:40:11.989Z,25.30
2018-04-10T12:42:38.970Z,25.20
2018-04-10T12:45:05.154Z,25.70
2018-04-10T12:47:31.215Z,26.10
2018-04-10T12:49:57.275Z,26.30
2018-04-10T12:52:23.377Z,26.40
2018-04-10T12:54:49.466Z,26.70
2018-04-10T12:57:15.677Z,27.30
2018-04-10T12:59:41.850Z,27.00
2018-04-10T13:02:08.707Z,27.40
2018-04-10T13:04:34.895Z,27.40
2018-04-10T13:07:01.070Z,28.50
2018-04-10T13:09:27.089Z,28.20
2018-04-10T13:11:53.142Z,28.40
2018-04-10T13:14:19.212Z,29.80
2018-04-10T13:16:46.049Z,28.20
2018-04-10T13:19:13.435Z,26.40
2018-04-10T13:21:40.265Z,26.10
2018-04-10T13:24:06.288Z,26.10
2018-04-10T13:26:32.658Z,24.60
2018-04-10T13:28:58.733Z,23.80
2018-04-10T13:31:24.806Z,23.80
2018-04-10T13:33:50.880Z,23.40
2018-04-10T13:36:17.677Z,22.20
2018-04-10T13:38:43.826Z,22.10
2018-04-10T13:41:10.663Z,23.10
2018-04-10T13:43:36.737Z,23.10
2018-04-10T13:46:02.810Z,23.40
2018-04-10T13:48:29.643Z,24.20
2018-04-10T13:50:55.730Z,24.20
2018-04-10T13:53:21.831Z,24.90
2018-04-10T13:55:48.697Z,24.50
2018-04-10T13:58:14.805Z,24.50
2018-04-10T14:00:40.846Z,23.30
2018-04-10T14:03:06.969Z,22.50
2018-04-10T14:05:33.059Z,22.50
2018-04-10T14:08:00.041Z,21.90
2018-04-10T14:10:26.206Z,21.60
2018-04-10T14:12:52.386Z,21.30
2018-04-10T14:15:19.115Z,20.70
2018-04-10T14:17:45.268Z,20.80
2018-04-10T14:20:12.246Z,20.50
2018-04-10T14:22:39.040Z,20.60
2018-04-10T14:25:05.169Z,20.60
2018-04-10T14:27:31.239Z,20.40
2018-04-10T14:29:57.309Z,19.80
2018-04-10T14:32:23.366Z,19.50
2018-04-10T14:34:50.238Z,19.70
2018-04-10T14:37:16.562Z,19.70
2018-04-10T14:39:43.406Z,19.30
2018-04-10T14:42:10.202Z,19.10
2018-04-10T14:44:36.275Z,19.10
2018-04-10T14:47:02.317Z,19.60
2018-04-10T14:49:29.898Z,19.90
2018-04-10T14:51:56.265Z,19.80
2018-04-10T14:54:23.094Z,21.10
2018-04-10T14:56:49.175Z,21.10
2018-04-10T14:59:15.281Z,21.10
2018-04-10T15:01:42.082Z,22.30
2018-04-10T15:04:08.185Z,22.20
2018-04-10T15:06:34.965Z,23.20
2018-04-10T15:09:02.280Z,23.20
2018-04-10T15:11:29.779Z,23.10
2018-04-10T15:13:55.890Z,23.10
2018-04-10T15:16:22.158Z,22.70
2018-04-10T15:18:48.969Z,21.30
2018-04-10T15:21:15.072Z,21.30
2018-04-10T15:23:41.117Z,21.40
2018-04-10T15:26:07.178Z,21.50
2018-04-10T15:28:33.214Z,21.70
2018-04-10T15:30:59.596Z,21.40
2018-04-10T15:33:25.660Z,20.90
2018-04-10T15:35:51.741Z,20.30
2018-04-10T15:38:17.946Z,19.30
2018-04-10T15:40:44.106Z,18.70
2018-04-10T15:43:10.130Z,18.20
2018-04-10T15:45:36.221Z,18.70
2018-04-10T15:48:02.313Z,19.20
2018-04-10T15:50:28.371Z,19.80
2018-04-10T15:52:54.409Z,19.90
2018-04-10T15:55:20.478Z,20.00
2018-04-10T15:57:46.615Z,20.10
2018-04-10T16:00:13.509Z,19.80
2018-04-10T16:02:39.602Z,20.00
2018-04-10T16:05:05.616Z,19.60
2018-04-10T16:07:31.680Z,19.40
2018-04-10T16:09:57.753Z,19.00
2018-04-10T16:12:23.882Z,19.40
2018-04-10T16:14:49.953Z,19.90
2018-04-10T16:17:16.146Z,19.50
2018-04-10T16:19:42.196Z,18.80
2018-04-10T16:22:08.968Z,18.70
2018-04-10T16:24:35.039Z,18.60
2018-04-10T16:27:01.087Z,18.20
2018-04-10T16:29:27.157Z,17.60
2018-04-10T16:31:53.926Z,17.20
2018-04-10T16:34:20.029Z,17.20
2018-04-10T16:36:46.945Z,16.10
2018-04-10T16:39:13.040Z,16.10
2018-04-10T16:41:39.801Z,15.60
2018-04-10T16:44:06.591Z,15.60
2018-04-10T16:46:32.714Z,15.60
2018-04-10T16:48:58.772Z,15.40
2018-04-10T16:51:24.811Z,15.20
2018-04-10T16:53:51.229Z,14.90
2018-04-10T16:56:17.324Z,14.70
2018-04-10T16:58:43.404Z,14.70
2018-04-10T17:01:09.456Z,14.50
2018-04-10T17:03:35.482Z,14.40
2018-04-10T17:06:01.533Z,14.00
2018-04-10T17:08:27.625Z,13.80
2018-04-10T17:10:54.398Z,13.60
2018-04-10T17:13:21.165Z,13.50
2018-04-10T17:15:47.286Z,13.50
2018-04-10T17:18:14.121Z,13.10
2018-04-10T17:20:40.147Z,13.10
2018-04-10T17:23:06.214Z,12.70
2018-04-10T17:25:33.082Z,12.10
2018-04-10T17:27:59.159Z,12.10
2018-04-10T17:30:25.330Z,12.00
2018-04-10T17:32:51.709Z,11.80
2018-04-10T17:35:17.863Z,11.70
2018-04-10T17:37:45.133Z,11.50
2018-04-10T17:40:11.209Z,11.40
2018-04-10T17:42:37.224Z,11.10
2018-04-10T17:45:03.519Z,10.80
2018-04-10T17:47:29.616Z,10.70
2018-04-10T17:49:55.661Z,10.40
2018-04-10T17:52:21.956Z,10.30
2018-04-10T17:54:48.324Z,10.20
2018-04-10T17:57:14.575Z,10.10
2018-04-10T17:59:40.807Z,10.00
2018-04-10T18:02:06.929Z,9.90
2018-04-10T18:04:33.030Z,9.70
2018-04-10T18:06:59.105Z,9.60
2018-04-10T18:09:25.392Z,9.50
2018-04-10T18:11:52.363Z,9.20
2018-04-10T18:14:18.405Z,9.20
2018-04-10T18:16:45.614Z,9.10
2018-04-10T18:19:11.711Z,9.00
2018-04-10T18:21:38.598Z,8.90
2018-04-10T18:24:04.656Z,8.90
2018-04-10T18:26:30.775Z,8.90
2018-04-10T18:28:56.835Z,8.90
2018-04-10T18:31:23.182Z,8.70
2018-04-10T18:33:49.334Z,8.70
2018-04-10T18:36:15.689Z,8.60
2018-04-10T18:38:42.494Z,8.50
2018-04-10T18:41:08.533Z,8.50
2018-04-10T18:43:34.609Z,8.60
2018-04-10T18:46:00.670Z,8.50
2018-04-10T18:48:27.460Z,8.40
2018-04-10T18:50:53.702Z,8.40
2018-04-10T18:53:19.760Z,8.40
2018-04-10T18:55:46.970Z,8.40
2018-04-10T18:58:13.795Z,8.40
2018-04-10T19:00:39.849Z,8.40
2018-04-10T19:03:05.890Z,8.40
2018-04-10T19:05:31.947Z,8.40
2018-04-10T19:07:57.989Z,8.40
2018-04-10T19:10:24.833Z,8.40
2018-04-10T19:12:50.999Z,8.40
2018-04-10T19:15:17.173Z,8.40
2018-04-10T19:17:43.360Z,8.30
2018-04-10T19:20:09.521Z,8.30
2018-04-10T19:22:35.573Z,8.40
2018-04-10T19:25:01.603Z,8.40
2018-04-10T19:27:27.680Z,8.40
2018-04-10T19:29:53.820Z,8.40
2018-04-10T19:32:19.985Z,8.40
2018-04-10T19:34:46.894Z,8.40
2018-04-10T19:37:12.941Z,8.30
2018-04-10T19:39:39.093Z,8.30
2018-04-10T19:42:05.486Z,8.30
2018-04-10T19:44:31.621Z,8.30
2018-04-10T19:46:57.649Z,8.30
2018-04-10T19:49:24.591Z,8.20
2018-04-10T19:51:50.953Z,8.20
2018-04-10T19:54:17.198Z,8.20
2018-04-10T19:56:43.519Z,8.20
2018-04-10T19:59:10.553Z,8.20
2018-04-10T20:01:36.605Z,8.20
2018-04-10T20:04:02.683Z,8.20
2018-04-10T20:06:29.010Z,8.20
2018-04-10T20:08:55.827Z,8.20
2018-04-10T20:11:22.039Z,8.20
2018-04-10T20:13:48.408Z,8.20
2018-04-10T20:16:14.972Z,8.20
2018-04-10T20:18:41.138Z,8.20
2018-04-10T20:21:07.193Z,8.20
2018-04-10T20:23:33.469Z,8.20
2018-04-10T20:26:00.322Z,8.20
2018-04-10T20:28:26.346Z,8.20
2018-04-10T20:30:52.643Z,8.20
2018-04-10T20:33:19.484Z,8.10
2018-04-10T20:35:45.750Z,8.10
2018-04-10T20:38:12.030Z,8.10
2018-04-10T20:40:38.054Z,8.10
2018-04-10T20:43:04.076Z,8.10
2018-04-10T20:45:30.315Z,8.10
2018-04-10T20:47:56.381Z,8.00
2018-04-10T20:50:22.505Z,8.00
2018-04-10T20:52:48.796Z,8.00
2018-04-10T20:55:15.011Z,8.10
2018-04-10T20:57:41.137Z,8.10
2018-04-10T21:00:07.346Z,8.10
2018-04-10T21:02:34.143Z,8.10
2018-04-10T21:05:01.158Z,8.00
2018-04-10T21:07:27.989Z,8.10
2018-04-10T21:09:54.331Z,8.10
2018-04-10T21:12:20.494Z,8.10
2018-04-10T21:14:46.877Z,8.10
2018-04-10T21:17:12.917Z,8.10
2018-04-10T21:19:38.950Z,8.10
2018-04-10T21:22:12.025Z,8.10
2018-04-10T21:24:38.822Z,8.00
2018-04-10T21:27:04.880Z,8.00
2018-04-10T21:29:30.977Z,7.90
2018-04-10T21:31:57.024Z,7.90
2018-04-10T21:34:23.457Z,7.90
2018-04-10T21:36:49.831Z,7.90
2018-04-10T21:39:16.257Z,7.80
2018-04-10T21:41:43.172Z,7.70
2018-04-10T21:44:10.033Z,7.70
2018-04-10T21:46:36.828Z,7.70
2018-04-10T21:49:02.904Z,7.60
2018-04-10T21:51:29.091Z,7.60
2018-04-10T21:53:55.149Z,7.60
2018-04-10T21:56:21.471Z,7.60
2018-04-10T21:58:47.725Z,7.50
2018-04-10T22:01:13.785Z,7.50
2018-04-10T22:03:40.153Z,7.50
2018-04-10T22:06:06.197Z,7.50
2018-04-10T22:08:32.984Z,7.40
2018-04-10T22:10:59.045Z,7.40
2018-04-10T22:13:25.062Z,7.40
2018-04-10T22:15:51.302Z,7.30
2018-04-10T22:18:18.153Z,7.30
2018-04-10T22:20:45.062Z,7.30
2018-04-10T22:23:11.314Z,7.20
2018-04-10T22:25:37.405Z,7.20
2018-04-10T22:28:03.784Z,7.20
2018-04-10T22:30:29.865Z,7.20
2018-04-10T22:32:55.862Z,7.20
2018-04-10T22:35:22.733Z,7.10
2018-04-10T22:37:49.314Z,7.10
2018-04-10T22:40:15.946Z,7.10
2018-04-10T22:42:42.138Z,7.00
2018-04-10T22:45:08.263Z,7.00
2018-04-10T22:47:34.314Z,7.00
2018-04-10T22:50:00.421Z,7.00
2018-04-10T22:52:26.496Z,6.90
2018-04-10T22:54:53.402Z,6.90
2018-04-10T22:57:19.842Z,6.80
2018-04-10T22:59:46.330Z,6.90
2018-04-10T23:02:12.477Z,6.80
2018-04-10T23:04:38.597Z,6.80
2018-04-10T23:07:04.638Z,6.80
2018-04-10T23:09:30.682Z,6.80
2018-04-10T23:11:56.840Z,6.80
2018-04-10T23:14:23.026Z,6.70
2018-04-10T23:16:49.666Z,6.80
2018-04-10T23:19:17.550Z,6.80
2018-04-10T23:21:43.898Z,6.80
2018-04-10T23:24:10.238Z,6.80
2018-04-10T23:26:37.495Z,6.70
2018-04-10T23:29:04.622Z,6.70
2018-04-10T23:31:30.702Z,6.70
2018-04-10T23:33:57.544Z,6.70
2018-04-10T23:36:25.148Z,6.70
2018-04-10T23:38:52.302Z,6.70
2018-04-10T23:41:19.591Z,6.60
2018-04-10T23:43:52.582Z,6.70
2018-04-10T23:46:19.637Z,6.60
2018-04-10T23:48:46.348Z,6.60
2018-04-10T23:51:12.427Z,6.60
2018-04-10T23:53:39.292Z,6.60
2018-04-10T23:56:06.141Z,6.60
2018-04-10T23:58:32.931Z,6.60
